sensor_id;sensor_type;location;lat;lon;timestamp;P1;durP1;ratioP1;P2;durP2;ratioP2
8327;SDS011;4201;48.754;8.864;2024-01-27T00:00:03;15.40;;;5.53;;
8327;SDS011;4201;48.754;8.864;2024-01-27T00:02:30;8.20;;;5.60;;
8327;SDS011;4201;48.754;8.864;2024-01-27T00:04:56;10.23;;;5.47;;
8327;SDS011;4201;48.754;8.864;2024-01-27T00:07:22;10.17;;;5.23;;
8327;SDS011;4201;48.754;8.864;2024-01-27T00:09:51;11.13;;;5.17;;
8327;SDS011;4201;48.754;8.864;2024-01-27T00:12:17;8.80;;;6.00;;
8327;SDS011;4201;48.754;8.864;2024-01-27T00:14:44;11.33;;;5.67;;
8327;SDS011;4201;48.754;8.864;2024-01-27T00:17:10;8.03;;;5.30;;
8327;SDS011;4201;48.754;8.864;2024-01-27T00:19:36;7.00;;;4.80;;
8327;SDS011;4201;48.754;8.864;2024-01-27T00:22:03;11.27;;;5.37;;
8327;SDS011;4201;48.754;8.864;2024-01-27T00:24:29;10.87;;;4.03;;
8327;SDS011;4201;48.754;8.864;2024-01-27T00:26:57;5.70;;;3.70;;
8327;SDS011;4201;48.754;8.864;2024-01-27T00:29:24;8.53;;;5.17;;
8327;SDS011;4201;48.754;8.864;2024-01-27T00:31:50;6.77;;;3.97;;
8327;SDS011;4201;48.754;8.864;2024-01-27T00:34:16;8.90;;;5.33;;
8327;SDS011;4201;48.754;8.864;2024-01-27T00:36:42;13.60;;;5.37;;
8327;SDS011;4201;48.754;8.864;2024-01-27T00:39:13;7.13;;;4.67;;
8327;SDS011;4201;48.754;8.864;2024-01-27T00:41:39;9.80;;;5.00;;
8327;SDS011;4201;48.754;8.864;2024-01-27T00:44:07;9.23;;;4.93;;
8327;SDS011;4201;48.754;8.864;2024-01-27T00:46:33;11.43;;;5.40;;
8327;SDS011;4201;48.754;8.864;2024-01-27T00:48:59;12.97;;;4.80;;
8327;SDS011;4201;48.754;8.864;2024-01-27T00:51:26;14.13;;;5.20;;
8327;SDS011;4201;48.754;8.864;2024-01-27T00:53:52;7.07;;;4.00;;
8327;SDS011;4201;48.754;8.864;2024-01-27T00:56:18;11.83;;;3.90;;
8327;SDS011;4201;48.754;8.864;2024-01-27T00:58:44;7.97;;;4.37;;
8327;SDS011;4201;48.754;8.864;2024-01-27T01:01:12;13.23;;;4.47;;
8327;SDS011;4201;48.754;8.864;2024-01-27T01:03:38;6.33;;;4.23;;
8327;SDS011;4201;48.754;8.864;2024-01-27T01:06:05;12.50;;;4.57;;
8327;SDS011;4201;48.754;8.864;2024-01-27T01:08:31;12.33;;;5.20;;
8327;SDS011;4201;48.754;8.864;2024-01-27T01:10:57;9.00;;;4.77;;
8327;SDS011;4201;48.754;8.864;2024-01-27T01:13:23;7.20;;;4.30;;
8327;SDS011;4201;48.754;8.864;2024-01-27T01:15:50;8.73;;;4.23;;
8327;SDS011;4201;48.754;8.864;2024-01-27T01:18:17;6.63;;;4.43;;
8327;SDS011;4201;48.754;8.864;2024-01-27T01:20:43;40.10;;;6.80;;
8327;SDS011;4201;48.754;8.864;2024-01-27T01:23:10;9.50;;;5.50;;
8327;SDS011;4201;48.754;8.864;2024-01-27T01:25:36;9.20;;;4.93;;
8327;SDS011;4201;48.754;8.864;2024-01-27T01:28:02;9.13;;;4.00;;
8327;SDS011;4201;48.754;8.864;2024-01-27T01:30:29;6.87;;;3.80;;
8327;SDS011;4201;48.754;8.864;2024-01-27T01:32:55;7.70;;;3.43;;
8327;SDS011;4201;48.754;8.864;2024-01-27T01:35:23;6.17;;;3.30;;
8327;SDS011;4201;48.754;8.864;2024-01-27T01:37:49;11.60;;;4.23;;
8327;SDS011;4201;48.754;8.864;2024-01-27T01:40:15;11.63;;;3.83;;
8327;SDS011;4201;48.754;8.864;2024-01-27T01:42:42;10.33;;;3.53;;
8327;SDS011;4201;48.754;8.864;2024-01-27T01:45:08;12.23;;;3.83;;
8327;SDS011;4201;48.754;8.864;2024-01-27T01:47:36;8.00;;;3.97;;
8327;SDS011;4201;48.754;8.864;2024-01-27T01:50:02;11.20;;;4.37;;
8327;SDS011;4201;48.754;8.864;2024-01-27T01:52:30;8.10;;;4.07;;
8327;SDS011;4201;48.754;8.864;2024-01-27T01:54:57;11.57;;;3.43;;
8327;SDS011;4201;48.754;8.864;2024-01-27T01:57:23;10.40;;;3.30;;
8327;SDS011;4201;48.754;8.864;2024-01-27T01:59:49;11.40;;;3.80;;
8327;SDS011;4201;48.754;8.864;2024-01-27T02:02:15;10.57;;;4.63;;
8327;SDS011;4201;48.754;8.864;2024-01-27T02:04:42;12.63;;;4.17;;
8327;SDS011;4201;48.754;8.864;2024-01-27T02:07:08;19.20;;;6.63;;
8327;SDS011;4201;48.754;8.864;2024-01-27T02:09:36;15.80;;;6.13;;
8327;SDS011;4201;48.754;8.864;2024-01-27T02:12:02;15.50;;;5.97;;
8327;SDS011;4201;48.754;8.864;2024-01-27T02:14:29;10.33;;;4.97;;
8327;SDS011;4201;48.754;8.864;2024-01-27T02:16:55;12.40;;;5.23;;
8327;SDS011;4201;48.754;8.864;2024-01-27T02:19:21;16.20;;;7.37;;
8327;SDS011;4201;48.754;8.864;2024-01-27T02:21:48;13.80;;;7.83;;
8327;SDS011;4201;48.754;8.864;2024-01-27T02:24:15;14.17;;;6.80;;
8327;SDS011;4201;48.754;8.864;2024-01-27T02:26:41;15.23;;;8.60;;
8327;SDS011;4201;48.754;8.864;2024-01-27T02:29:08;13.80;;;7.90;;
8327;SDS011;4201;48.754;8.864;2024-01-27T02:31:34;13.53;;;7.17;;
8327;SDS011;4201;48.754;8.864;2024-01-27T02:34:00;11.97;;;7.60;;
8327;SDS011;4201;48.754;8.864;2024-01-27T02:36:26;16.03;;;6.97;;
8327;SDS011;4201;48.754;8.864;2024-01-27T02:38:53;16.57;;;7.37;;
8327;SDS011;4201;48.754;8.864;2024-01-27T02:41:20;22.83;;;8.53;;
8327;SDS011;4201;48.754;8.864;2024-01-27T02:43:46;12.30;;;7.70;;
8327;SDS011;4201;48.754;8.864;2024-01-27T02:46:13;14.23;;;7.23;;
8327;SDS011;4201;48.754;8.864;2024-01-27T02:48:40;10.87;;;7.50;;
8327;SDS011;4201;48.754;8.864;2024-01-27T02:51:07;13.53;;;7.60;;
8327;SDS011;4201;48.754;8.864;2024-01-27T02:53:33;12.70;;;7.57;;
8327;SDS011;4201;48.754;8.864;2024-01-27T02:55:59;11.13;;;7.00;;
8327;SDS011;4201;48.754;8.864;2024-01-27T02:58:27;14.70;;;7.30;;
8327;SDS011;4201;48.754;8.864;2024-01-27T03:00:53;16.13;;;7.20;;
8327;SDS011;4201;48.754;8.864;2024-01-27T03:03:19;15.73;;;6.37;;
8327;SDS011;4201;48.754;8.864;2024-01-27T03:05:45;12.30;;;7.07;;
8327;SDS011;4201;48.754;8.864;2024-01-27T03:08:12;14.00;;;6.50;;
8327;SDS011;4201;48.754;8.864;2024-01-27T03:10:38;12.93;;;6.63;;
8327;SDS011;4201;48.754;8.864;2024-01-27T03:13:04;12.83;;;6.10;;
8327;SDS011;4201;48.754;8.864;2024-01-27T03:15:33;14.87;;;5.80;;
8327;SDS011;4201;48.754;8.864;2024-01-27T03:17:59;9.93;;;4.03;;
8327;SDS011;4201;48.754;8.864;2024-01-27T03:20:25;12.73;;;5.53;;
8327;SDS011;4201;48.754;8.864;2024-01-27T03:22:52;11.80;;;5.20;;
8327;SDS011;4201;48.754;8.864;2024-01-27T03:25:19;13.30;;;5.67;;
8327;SDS011;4201;48.754;8.864;2024-01-27T03:27:45;13.63;;;5.33;;
8327;SDS011;4201;48.754;8.864;2024-01-27T03:30:11;12.53;;;6.00;;
8327;SDS011;4201;48.754;8.864;2024-01-27T03:32:39;10.73;;;5.43;;
8327;SDS011;4201;48.754;8.864;2024-01-27T03:35:06;16.33;;;6.00;;
8327;SDS011;4201;48.754;8.864;2024-01-27T03:37:32;11.43;;;4.53;;
8327;SDS011;4201;48.754;8.864;2024-01-27T03:39:59;9.57;;;4.50;;
8327;SDS011;4201;48.754;8.864;2024-01-27T03:42:25;10.27;;;4.27;;
8327;SDS011;4201;48.754;8.864;2024-01-27T03:44:51;12.27;;;4.80;;
8327;SDS011;4201;48.754;8.864;2024-01-27T03:47:18;14.67;;;4.90;;
8327;SDS011;4201;48.754;8.864;2024-01-27T03:49:45;10.20;;;5.13;;
8327;SDS011;4201;48.754;8.864;2024-01-27T03:52:12;19.10;;;5.63;;
8327;SDS011;4201;48.754;8.864;2024-01-27T03:54:38;15.87;;;5.33;;
8327;SDS011;4201;48.754;8.864;2024-01-27T03:57:04;15.70;;;5.80;;
8327;SDS011;4201;48.754;8.864;2024-01-27T04:07:10;17.10;;;5.43;;
8327;SDS011;4201;48.754;8.864;2024-01-27T04:09:36;13.90;;;4.40;;
8327;SDS011;4201;48.754;8.864;2024-01-27T04:12:02;13.67;;;5.40;;
8327;SDS011;4201;48.754;8.864;2024-01-27T04:14:29;9.00;;;5.07;;
8327;SDS011;4201;48.754;8.864;2024-01-27T04:16:55;13.23;;;7.33;;
8327;SDS011;4201;48.754;8.864;2024-01-27T04:19:21;15.47;;;7.63;;
8327;SDS011;4201;48.754;8.864;2024-01-27T04:21:47;12.90;;;7.33;;
8327;SDS011;4201;48.754;8.864;2024-01-27T04:24:15;14.43;;;6.90;;
8327;SDS011;4201;48.754;8.864;2024-01-27T04:26:41;12.53;;;6.90;;
8327;SDS011;4201;48.754;8.864;2024-01-27T04:29:07;14.70;;;8.50;;
8327;SDS011;4201;48.754;8.864;2024-01-27T04:31:38;19.83;;;8.93;;
8327;SDS011;4201;48.754;8.864;2024-01-27T04:34:04;13.37;;;8.80;;
8327;SDS011;4201;48.754;8.864;2024-01-27T04:36:30;18.23;;;8.77;;
8327;SDS011;4201;48.754;8.864;2024-01-27T04:38:57;21.47;;;11.50;;
8327;SDS011;4201;48.754;8.864;2024-01-27T04:41:24;23.47;;;11.50;;
8327;SDS011;4201;48.754;8.864;2024-01-27T04:43:51;24.80;;;12.30;;
8327;SDS011;4201;48.754;8.864;2024-01-27T04:46:18;19.60;;;8.40;;
8327;SDS011;4201;48.754;8.864;2024-01-27T04:48:44;21.73;;;10.23;;
8327;SDS011;4201;48.754;8.864;2024-01-27T04:51:10;13.77;;;6.80;;
8327;SDS011;4201;48.754;8.864;2024-01-27T04:53:36;12.50;;;7.00;;
8327;SDS011;4201;48.754;8.864;2024-01-27T04:56:03;12.30;;;6.40;;
8327;SDS011;4201;48.754;8.864;2024-01-27T04:58:34;12.70;;;6.63;;
8327;SDS011;4201;48.754;8.864;2024-01-27T05:01:00;14.50;;;6.00;;
8327;SDS011;4201;48.754;8.864;2024-01-27T05:03:26;13.20;;;5.97;;
8327;SDS011;4201;48.754;8.864;2024-01-27T05:05:53;16.43;;;7.10;;
8327;SDS011;4201;48.754;8.864;2024-01-27T05:08:19;17.13;;;8.00;;
8327;SDS011;4201;48.754;8.864;2024-01-27T05:10:45;16.73;;;6.93;;
8327;SDS011;4201;48.754;8.864;2024-01-27T05:13:11;18.40;;;8.97;;
8327;SDS011;4201;48.754;8.864;2024-01-27T05:15:39;23.70;;;9.07;;
8327;SDS011;4201;48.754;8.864;2024-01-27T05:18:05;16.70;;;8.33;;
8327;SDS011;4201;48.754;8.864;2024-01-27T05:20:31;14.60;;;7.43;;
8327;SDS011;4201;48.754;8.864;2024-01-27T05:22:57;13.03;;;6.80;;
8327;SDS011;4201;48.754;8.864;2024-01-27T05:25:24;16.40;;;7.40;;
8327;SDS011;4201;48.754;8.864;2024-01-27T05:27:50;14.40;;;7.00;;
8327;SDS011;4201;48.754;8.864;2024-01-27T05:30:16;13.70;;;7.03;;
8327;SDS011;4201;48.754;8.864;2024-01-27T05:32:44;16.17;;;7.50;;
8327;SDS011;4201;48.754;8.864;2024-01-27T05:35:10;12.10;;;6.60;;
8327;SDS011;4201;48.754;8.864;2024-01-27T05:37:36;10.83;;;5.90;;
8327;SDS011;4201;48.754;8.864;2024-01-27T05:40:05;11.03;;;5.93;;
8327;SDS011;4201;48.754;8.864;2024-01-27T05:42:31;16.57;;;7.80;;
8327;SDS011;4201;48.754;8.864;2024-01-27T05:44:57;15.77;;;7.07;;
8327;SDS011;4201;48.754;8.864;2024-01-27T05:47:24;17.20;;;8.50;;
8327;SDS011;4201;48.754;8.864;2024-01-27T05:49:52;10.30;;;6.00;;
8327;SDS011;4201;48.754;8.864;2024-01-27T05:52:18;12.70;;;7.00;;
8327;SDS011;4201;48.754;8.864;2024-01-27T05:54:44;13.50;;;7.27;;
8327;SDS011;4201;48.754;8.864;2024-01-27T05:57:11;12.90;;;7.00;;
8327;SDS011;4201;48.754;8.864;2024-01-27T05:59:37;11.90;;;6.60;;
8327;SDS011;4201;48.754;8.864;2024-01-27T06:02:03;10.57;;;6.83;;
8327;SDS011;4201;48.754;8.864;2024-01-27T06:04:30;10.80;;;6.40;;
8327;SDS011;4201;48.754;8.864;2024-01-27T06:06:59;15.30;;;6.63;;
8327;SDS011;4201;48.754;8.864;2024-01-27T06:09:26;19.17;;;7.43;;
8327;SDS011;4201;48.754;8.864;2024-01-27T06:11:52;11.40;;;6.33;;
8327;SDS011;4201;48.754;8.864;2024-01-27T06:14:18;11.57;;;6.60;;
8327;SDS011;4201;48.754;8.864;2024-01-27T06:16:45;18.20;;;7.07;;
8327;SDS011;4201;48.754;8.864;2024-01-27T06:19:11;13.00;;;6.83;;
8327;SDS011;4201;48.754;8.864;2024-01-27T06:21:37;17.80;;;6.83;;
8327;SDS011;4201;48.754;8.864;2024-01-27T06:24:05;16.00;;;7.03;;
8327;SDS011;4201;48.754;8.864;2024-01-27T06:26:31;15.60;;;7.67;;
8327;SDS011;4201;48.754;8.864;2024-01-27T06:28:57;20.97;;;7.50;;
8327;SDS011;4201;48.754;8.864;2024-01-27T06:31:25;15.23;;;6.50;;
8327;SDS011;4201;48.754;8.864;2024-01-27T06:33:51;16.30;;;7.57;;
8327;SDS011;4201;48.754;8.864;2024-01-27T06:36:17;15.30;;;6.90;;
8327;SDS011;4201;48.754;8.864;2024-01-27T06:38:44;12.23;;;7.53;;
8327;SDS011;4201;48.754;8.864;2024-01-27T06:41:11;17.87;;;9.40;;
8327;SDS011;4201;48.754;8.864;2024-01-27T06:43:38;13.63;;;7.87;;
8327;SDS011;4201;48.754;8.864;2024-01-27T06:46:04;13.30;;;7.30;;
8327;SDS011;4201;48.754;8.864;2024-01-27T06:48:30;12.73;;;7.10;;
8327;SDS011;4201;48.754;8.864;2024-01-27T06:50:56;17.07;;;7.70;;
8327;SDS011;4201;48.754;8.864;2024-01-27T06:53:23;21.50;;;7.60;;
8327;SDS011;4201;48.754;8.864;2024-01-27T06:55:49;18.37;;;7.97;;
8327;SDS011;4201;48.754;8.864;2024-01-27T06:58:16;18.23;;;7.70;;
8327;SDS011;4201;48.754;8.864;2024-01-27T07:00:43;13.90;;;7.50;;
8327;SDS011;4201;48.754;8.864;2024-01-27T07:03:09;19.87;;;8.90;;
8327;SDS011;4201;48.754;8.864;2024-01-27T07:05:36;12.20;;;7.57;;
8327;SDS011;4201;48.754;8.864;2024-01-27T07:08:05;14.97;;;8.20;;
8327;SDS011;4201;48.754;8.864;2024-01-27T07:10:32;17.07;;;8.30;;
8327;SDS011;4201;48.754;8.864;2024-01-27T07:12:58;18.00;;;8.63;;
8327;SDS011;4201;48.754;8.864;2024-01-27T07:15:25;30.47;;;16.50;;
8327;SDS011;4201;48.754;8.864;2024-01-27T07:17:52;30.40;;;16.90;;
8327;SDS011;4201;48.754;8.864;2024-01-27T07:20:18;26.43;;;15.70;;
8327;SDS011;4201;48.754;8.864;2024-01-27T07:22:45;22.20;;;13.30;;
8327;SDS011;4201;48.754;8.864;2024-01-27T07:25:11;24.17;;;14.13;;
8327;SDS011;4201;48.754;8.864;2024-01-27T07:27:37;15.00;;;10.93;;
8327;SDS011;4201;48.754;8.864;2024-01-27T07:30:04;25.47;;;14.47;;
8327;SDS011;4201;48.754;8.864;2024-01-27T07:32:32;21.07;;;13.30;;
8327;SDS011;4201;48.754;8.864;2024-01-27T07:34:59;21.60;;;9.47;;
8327;SDS011;4201;48.754;8.864;2024-01-27T07:37:25;17.77;;;9.23;;
8327;SDS011;4201;48.754;8.864;2024-01-27T07:39:51;18.83;;;9.20;;
8327;SDS011;4201;48.754;8.864;2024-01-27T07:42:17;16.50;;;9.40;;
8327;SDS011;4201;48.754;8.864;2024-01-27T07:44:44;19.10;;;10.67;;
8327;SDS011;4201;48.754;8.864;2024-01-27T07:47:10;16.33;;;11.20;;
8327;SDS011;4201;48.754;8.864;2024-01-27T07:49:37;17.33;;;10.30;;
8327;SDS011;4201;48.754;8.864;2024-01-27T07:52:04;18.47;;;9.10;;
8327;SDS011;4201;48.754;8.864;2024-01-27T07:54:31;13.23;;;8.47;;
8327;SDS011;4201;48.754;8.864;2024-01-27T07:56:58;15.90;;;9.80;;
8327;SDS011;4201;48.754;8.864;2024-01-27T07:59:24;11.20;;;7.57;;
8327;SDS011;4201;48.754;8.864;2024-01-27T08:01:50;12.80;;;7.40;;
8327;SDS011;4201;48.754;8.864;2024-01-27T08:04:17;13.80;;;7.53;;
8327;SDS011;4201;48.754;8.864;2024-01-27T08:06:48;23.17;;;11.57;;
8327;SDS011;4201;48.754;8.864;2024-01-27T08:09:14;24.10;;;11.60;;
8327;SDS011;4201;48.754;8.864;2024-01-27T08:11:41;16.80;;;10.23;;
8327;SDS011;4201;48.754;8.864;2024-01-27T08:14:08;14.03;;;8.87;;
8327;SDS011;4201;48.754;8.864;2024-01-27T08:16:34;20.07;;;10.93;;
8327;SDS011;4201;48.754;8.864;2024-01-27T08:19:00;16.73;;;9.40;;
8327;SDS011;4201;48.754;8.864;2024-01-27T08:21:27;15.73;;;9.50;;
8327;SDS011;4201;48.754;8.864;2024-01-27T08:23:56;21.03;;;11.60;;
8327;SDS011;4201;48.754;8.864;2024-01-27T08:26:22;18.83;;;11.90;;
8327;SDS011;4201;48.754;8.864;2024-01-27T08:28:49;19.23;;;10.77;;
8327;SDS011;4201;48.754;8.864;2024-01-27T08:31:15;22.10;;;10.87;;
8327;SDS011;4201;48.754;8.864;2024-01-27T08:33:41;15.63;;;10.37;;
8327;SDS011;4201;48.754;8.864;2024-01-27T08:36:08;15.20;;;8.73;;
8327;SDS011;4201;48.754;8.864;2024-01-27T08:38:38;14.17;;;6.53;;
8327;SDS011;4201;48.754;8.864;2024-01-27T08:41:06;13.13;;;7.20;;
8327;SDS011;4201;48.754;8.864;2024-01-27T08:43:32;10.37;;;6.63;;
8327;SDS011;4201;48.754;8.864;2024-01-27T08:46:01;20.57;;;11.03;;
8327;SDS011;4201;48.754;8.864;2024-01-27T08:48:28;15.80;;;9.20;;
8327;SDS011;4201;48.754;8.864;2024-01-27T08:50:54;19.13;;;11.13;;
8327;SDS011;4201;48.754;8.864;2024-01-27T08:53:20;19.87;;;10.50;;
8327;SDS011;4201;48.754;8.864;2024-01-27T08:55:46;20.43;;;11.80;;
8327;SDS011;4201;48.754;8.864;2024-01-27T08:58:14;18.37;;;9.83;;
8327;SDS011;4201;48.754;8.864;2024-01-27T09:00:40;21.60;;;11.80;;
8327;SDS011;4201;48.754;8.864;2024-01-27T09:03:06;20.43;;;10.00;;
8327;SDS011;4201;48.754;8.864;2024-01-27T09:05:33;17.50;;;7.27;;
8327;SDS011;4201;48.754;8.864;2024-01-27T09:07:59;13.63;;;7.67;;
8327;SDS011;4201;48.754;8.864;2024-01-27T09:10:25;12.63;;;7.43;;
8327;SDS011;4201;48.754;8.864;2024-01-27T09:12:53;16.93;;;9.07;;
8327;SDS011;4201;48.754;8.864;2024-01-27T09:15:21;15.80;;;9.37;;
8327;SDS011;4201;48.754;8.864;2024-01-27T09:17:47;18.37;;;10.33;;
8327;SDS011;4201;48.754;8.864;2024-01-27T09:20:14;19.00;;;10.20;;
8327;SDS011;4201;48.754;8.864;2024-01-27T09:22:40;19.90;;;11.90;;
8327;SDS011;4201;48.754;8.864;2024-01-27T09:25:08;21.50;;;10.60;;
8327;SDS011;4201;48.754;8.864;2024-01-27T09:27:34;21.73;;;10.37;;
8327;SDS011;4201;48.754;8.864;2024-01-27T09:30:00;18.00;;;11.23;;
8327;SDS011;4201;48.754;8.864;2024-01-27T09:32:29;18.70;;;10.60;;
8327;SDS011;4201;48.754;8.864;2024-01-27T09:34:55;15.73;;;10.30;;
8327;SDS011;4201;48.754;8.864;2024-01-27T09:37:21;18.07;;;10.33;;
8327;SDS011;4201;48.754;8.864;2024-01-27T09:39:48;22.30;;;11.43;;
8327;SDS011;4201;48.754;8.864;2024-01-27T09:42:14;20.27;;;10.77;;
8327;SDS011;4201;48.754;8.864;2024-01-27T09:44:41;14.57;;;9.43;;
8327;SDS011;4201;48.754;8.864;2024-01-27T09:47:09;21.60;;;9.30;;
8327;SDS011;4201;48.754;8.864;2024-01-27T09:49:37;13.13;;;7.90;;
8327;SDS011;4201;48.754;8.864;2024-01-27T09:52:03;10.77;;;6.93;;
8327;SDS011;4201;48.754;8.864;2024-01-27T09:54:30;12.17;;;6.90;;
8327;SDS011;4201;48.754;8.864;2024-01-27T09:56:56;10.13;;;7.13;;
8327;SDS011;4201;48.754;8.864;2024-01-27T09:59:23;9.03;;;5.70;;
8327;SDS011;4201;48.754;8.864;2024-01-27T10:01:50;16.30;;;7.70;;
8327;SDS011;4201;48.754;8.864;2024-01-27T10:04:18;16.50;;;8.10;;
8327;SDS011;4201;48.754;8.864;2024-01-27T10:06:46;12.10;;;6.77;;
8327;SDS011;4201;48.754;8.864;2024-01-27T10:09:13;17.20;;;7.73;;
8327;SDS011;4201;48.754;8.864;2024-01-27T10:11:40;16.10;;;8.93;;
8327;SDS011;4201;48.754;8.864;2024-01-27T10:14:08;16.40;;;8.10;;
8327;SDS011;4201;48.754;8.864;2024-01-27T10:16:39;16.20;;;8.00;;
8327;SDS011;4201;48.754;8.864;2024-01-27T11:18:27;12.47;;;6.20;;
8327;SDS011;4201;48.754;8.864;2024-01-27T11:20:54;17.27;;;6.30;;
8327;SDS011;4201;48.754;8.864;2024-01-27T11:23:30;9.90;;;6.00;;
8327;SDS011;4201;48.754;8.864;2024-01-27T11:26:02;13.00;;;6.10;;
8327;SDS011;4201;48.754;8.864;2024-01-27T11:28:28;14.60;;;6.37;;
8327;SDS011;4201;48.754;8.864;2024-01-27T11:30:54;9.73;;;6.10;;
8327;SDS011;4201;48.754;8.864;2024-01-27T11:33:20;13.43;;;7.00;;
8327;SDS011;4201;48.754;8.864;2024-01-27T11:36:00;10.07;;;5.73;;
8327;SDS011;4201;48.754;8.864;2024-01-27T11:38:27;15.23;;;6.37;;
8327;SDS011;4201;48.754;8.864;2024-01-27T11:40:54;15.07;;;6.00;;
8327;SDS011;4201;48.754;8.864;2024-01-27T11:43:20;12.07;;;6.03;;
8327;SDS011;4201;48.754;8.864;2024-01-27T11:45:54;12.03;;;5.30;;
8327;SDS011;4201;48.754;8.864;2024-01-27T11:48:20;10.60;;;5.83;;
8327;SDS011;4201;48.754;8.864;2024-01-27T11:50:47;11.10;;;5.40;;
8327;SDS011;4201;48.754;8.864;2024-01-27T11:53:14;15.93;;;5.90;;
8327;SDS011;4201;48.754;8.864;2024-01-27T11:55:41;12.53;;;6.27;;
8327;SDS011;4201;48.754;8.864;2024-01-27T11:58:07;12.40;;;5.00;;
8327;SDS011;4201;48.754;8.864;2024-01-27T12:00:33;15.20;;;6.57;;
8327;SDS011;4201;48.754;8.864;2024-01-27T12:03:00;12.90;;;5.90;;
8327;SDS011;4201;48.754;8.864;2024-01-27T12:05:26;10.93;;;5.40;;
8327;SDS011;4201;48.754;8.864;2024-01-27T12:07:52;12.00;;;5.47;;
8327;SDS011;4201;48.754;8.864;2024-01-27T12:10:20;16.87;;;7.43;;
8327;SDS011;4201;48.754;8.864;2024-01-27T12:12:46;12.70;;;6.00;;
8327;SDS011;4201;48.754;8.864;2024-01-27T12:15:13;8.70;;;5.47;;
8327;SDS011;4201;48.754;8.864;2024-01-27T12:17:40;12.93;;;4.87;;
8327;SDS011;4201;48.754;8.864;2024-01-27T12:20:11;11.10;;;5.77;;
8327;SDS011;4201;48.754;8.864;2024-01-27T12:22:40;9.63;;;4.33;;
8327;SDS011;4201;48.754;8.864;2024-01-27T12:25:09;12.00;;;4.43;;
8327;SDS011;4201;48.754;8.864;2024-01-27T12:27:38;15.20;;;5.40;;
8327;SDS011;4201;48.754;8.864;2024-01-27T12:30:05;10.90;;;4.77;;
8327;SDS011;4201;48.754;8.864;2024-01-27T12:32:32;8.47;;;4.20;;
8327;SDS011;4201;48.754;8.864;2024-01-27T12:34:58;7.07;;;4.37;;
8327;SDS011;4201;48.754;8.864;2024-01-27T12:37:25;10.10;;;4.43;;
8327;SDS011;4201;48.754;8.864;2024-01-27T12:39:51;14.70;;;4.90;;
8327;SDS011;4201;48.754;8.864;2024-01-27T12:42:17;9.00;;;4.57;;
8327;SDS011;4201;48.754;8.864;2024-01-27T12:44:45;8.73;;;3.77;;
8327;SDS011;4201;48.754;8.864;2024-01-27T12:47:11;12.20;;;5.00;;
8327;SDS011;4201;48.754;8.864;2024-01-27T12:49:39;9.47;;;4.57;;
8327;SDS011;4201;48.754;8.864;2024-01-27T12:52:05;9.13;;;4.10;;
8327;SDS011;4201;48.754;8.864;2024-01-27T12:54:32;9.67;;;5.00;;
8327;SDS011;4201;48.754;8.864;2024-01-27T12:56:58;9.07;;;4.20;;
8327;SDS011;4201;48.754;8.864;2024-01-27T12:59:26;12.70;;;4.40;;
8327;SDS011;4201;48.754;8.864;2024-01-27T13:01:54;9.33;;;5.03;;
8327;SDS011;4201;48.754;8.864;2024-01-27T13:04:21;15.07;;;5.00;;
8327;SDS011;4201;48.754;8.864;2024-01-27T13:06:47;8.70;;;4.10;;
8327;SDS011;4201;48.754;8.864;2024-01-27T13:09:14;5.10;;;3.30;;
8327;SDS011;4201;48.754;8.864;2024-01-27T13:11:40;10.80;;;4.40;;
8327;SDS011;4201;48.754;8.864;2024-01-27T13:14:06;8.23;;;3.67;;
8327;SDS011;4201;48.754;8.864;2024-01-27T13:16:34;14.30;;;4.60;;
8327;SDS011;4201;48.754;8.864;2024-01-27T13:19:02;15.03;;;4.50;;
8327;SDS011;4201;48.754;8.864;2024-01-27T13:21:28;12.20;;;4.10;;
8327;SDS011;4201;48.754;8.864;2024-01-27T13:23:54;12.33;;;4.20;;
8327;SDS011;4201;48.754;8.864;2024-01-27T13:26:21;25.20;;;5.37;;
8327;SDS011;4201;48.754;8.864;2024-01-27T13:28:47;8.27;;;4.23;;
8327;SDS011;4201;48.754;8.864;2024-01-27T13:31:14;8.00;;;3.70;;
8327;SDS011;4201;48.754;8.864;2024-01-27T13:33:41;5.50;;;3.70;;
8327;SDS011;4201;48.754;8.864;2024-01-27T13:36:08;6.67;;;3.30;;
8327;SDS011;4201;48.754;8.864;2024-01-27T13:38:34;14.27;;;3.87;;
8327;SDS011;4201;48.754;8.864;2024-01-27T13:41:01;11.93;;;4.20;;
8327;SDS011;4201;48.754;8.864;2024-01-27T13:43:27;15.60;;;4.27;;
8327;SDS011;4201;48.754;8.864;2024-01-27T13:45:54;43.03;;;15.50;;
8327;SDS011;4201;48.754;8.864;2024-01-27T13:48:20;47.37;;;12.97;;
8327;SDS011;4201;48.754;8.864;2024-01-27T13:50:46;42.30;;;13.10;;
8327;SDS011;4201;48.754;8.864;2024-01-27T13:53:14;25.17;;;8.00;;
8327;SDS011;4201;48.754;8.864;2024-01-27T13:55:40;31.60;;;10.87;;
8327;SDS011;4201;48.754;8.864;2024-01-27T13:58:09;21.73;;;7.20;;
8327;SDS011;4201;48.754;8.864;2024-01-27T14:00:35;7.60;;;3.80;;
8327;SDS011;4201;48.754;8.864;2024-01-27T14:03:01;8.80;;;3.90;;
8327;SDS011;4201;48.754;8.864;2024-01-27T14:05:27;13.90;;;4.70;;
8327;SDS011;4201;48.754;8.864;2024-01-27T14:07:54;8.60;;;4.40;;
8327;SDS011;4201;48.754;8.864;2024-01-27T14:10:22;8.70;;;3.83;;
8327;SDS011;4201;48.754;8.864;2024-01-27T14:12:49;6.20;;;3.40;;
8327;SDS011;4201;48.754;8.864;2024-01-27T14:15:16;10.80;;;3.70;;
8327;SDS011;4201;48.754;8.864;2024-01-27T14:17:42;4.73;;;2.33;;
8327;SDS011;4201;48.754;8.864;2024-01-27T14:20:09;9.97;;;4.30;;
8327;SDS011;4201;48.754;8.864;2024-01-27T14:22:36;6.03;;;3.30;;
8327;SDS011;4201;48.754;8.864;2024-01-27T14:25:02;10.30;;;3.00;;
8327;SDS011;4201;48.754;8.864;2024-01-27T14:27:30;6.37;;;3.60;;
8327;SDS011;4201;48.754;8.864;2024-01-27T14:29:57;9.33;;;3.20;;
8327;SDS011;4201;48.754;8.864;2024-01-27T14:32:23;9.70;;;3.30;;
8327;SDS011;4201;48.754;8.864;2024-01-27T14:34:49;13.00;;;3.30;;
8327;SDS011;4201;48.754;8.864;2024-01-27T14:37:16;12.80;;;4.00;;
8327;SDS011;4201;48.754;8.864;2024-01-27T14:39:42;7.87;;;2.97;;
8327;SDS011;4201;48.754;8.864;2024-01-27T14:42:10;5.70;;;2.93;;
8327;SDS011;4201;48.754;8.864;2024-01-27T14:44:38;8.40;;;3.17;;
8327;SDS011;4201;48.754;8.864;2024-01-27T14:47:04;7.60;;;3.27;;
8327;SDS011;4201;48.754;8.864;2024-01-27T14:49:31;6.20;;;3.40;;
8327;SDS011;4201;48.754;8.864;2024-01-27T14:51:58;9.50;;;3.60;;
8327;SDS011;4201;48.754;8.864;2024-01-27T14:54:24;9.10;;;3.57;;
8327;SDS011;4201;48.754;8.864;2024-01-27T14:56:50;11.93;;;4.90;;
8327;SDS011;4201;48.754;8.864;2024-01-27T14:59:16;6.87;;;4.00;;
8327;SDS011;4201;48.754;8.864;2024-01-27T15:01:45;10.47;;;3.60;;
8327;SDS011;4201;48.754;8.864;2024-01-27T15:04:14;12.00;;;5.23;;
8327;SDS011;4201;48.754;8.864;2024-01-27T15:06:40;11.80;;;4.20;;
8327;SDS011;4201;48.754;8.864;2024-01-27T15:09:06;7.40;;;3.60;;
8327;SDS011;4201;48.754;8.864;2024-01-27T15:11:33;11.57;;;4.27;;
8327;SDS011;4201;48.754;8.864;2024-01-27T15:13:59;6.80;;;4.40;;
8327;SDS011;4201;48.754;8.864;2024-01-27T15:16:26;10.17;;;4.80;;
8327;SDS011;4201;48.754;8.864;2024-01-27T15:18:55;10.03;;;4.63;;
8327;SDS011;4201;48.754;8.864;2024-01-27T15:21:21;10.00;;;4.40;;
8327;SDS011;4201;48.754;8.864;2024-01-27T15:23:47;9.10;;;3.40;;
8327;SDS011;4201;48.754;8.864;2024-01-27T15:26:14;7.80;;;4.30;;
8327;SDS011;4201;48.754;8.864;2024-01-27T15:28:40;7.67;;;3.97;;
8327;SDS011;4201;48.754;8.864;2024-01-27T15:31:06;7.13;;;3.30;;
8327;SDS011;4201;48.754;8.864;2024-01-27T15:33:32;7.57;;;3.57;;
8327;SDS011;4201;48.754;8.864;2024-01-27T15:36:01;13.20;;;5.13;;
8327;SDS011;4201;48.754;8.864;2024-01-27T15:38:27;10.97;;;5.50;;
8327;SDS011;4201;48.754;8.864;2024-01-27T15:40:53;11.97;;;4.50;;
8327;SDS011;4201;48.754;8.864;2024-01-27T15:43:19;10.63;;;5.00;;
8327;SDS011;4201;48.754;8.864;2024-01-27T15:45:46;18.33;;;4.80;;
8327;SDS011;4201;48.754;8.864;2024-01-27T15:48:12;13.80;;;7.07;;
8327;SDS011;4201;48.754;8.864;2024-01-27T15:50:38;13.53;;;5.23;;
8327;SDS011;4201;48.754;8.864;2024-01-27T15:53:06;12.00;;;5.30;;
8327;SDS011;4201;48.754;8.864;2024-01-27T15:55:34;11.80;;;5.33;;
8327;SDS011;4201;48.754;8.864;2024-01-27T15:58:00;11.93;;;5.30;;
8327;SDS011;4201;48.754;8.864;2024-01-27T16:00:26;8.20;;;4.83;;
8327;SDS011;4201;48.754;8.864;2024-01-27T16:02:53;16.10;;;5.70;;
8327;SDS011;4201;48.754;8.864;2024-01-27T16:05:19;14.53;;;5.20;;